Página principal
METAR-TAF:

METAR-TAF

Aeroportos :

Diourbel, Senegal

latitude: 14-39N, longitude: 016-14W, altura: 7 m

Observação actual do tempo

O boletim foi feito há 1 hora e 22 minutos, às 04:00 UTC
Vento 8 kt de oeste
Temperatura 27°C
Humidade 89%
Pressão 1011 hPa
Visibilidade 10 km ou mais
sem nuvens abaixo de 1500 metros e sem cumulonimbus

METAR: GOOD 230400Z 28008KT CAVOK 27/25 Q1011

Hora: 05:22 (05:22 UTC)


TAF: em falta

Observações e previsões do tempo de mais de 4000 aeroportos (mensagens METAR e TAF).

As estações disponíveis são os pontos amarelos e vermelhos sobre o mapa.

Mova o rato sobre o mapa para ver o nome da estação.

Depois clique no ponto para visualizar as observações e previsões meteorológicas.

Para alterar o mapa : clique nos botões verdes com uma cruz preta para aumentar o zoom; no botão verde com uma pitada de zoom; ou nas setas verdes para mapas adjacentes.


METAR-TAF: